sensor_id;sensor_type;location;lat;lon;timestamp;pressure;altitude;pressure_sealevel;temperature;humidity
49030;BME280;43337;52.070;4.508;2023-04-01T00:00:15;99224.97;;;8.58;100.00
49030;BME280;43337;52.070;4.508;2023-04-01T00:02:41;99216.06;;;8.46;100.00
49030;BME280;43337;52.070;4.508;2023-04-01T00:05:07;99227.19;;;8.50;100.00
49030;BME280;43337;52.070;4.508;2023-04-01T00:07:32;99230.38;;;8.55;100.00
49030;BME280;43337;52.070;4.508;2023-04-01T00:09:58;99238.25;;;8.55;100.00
49030;BME280;43337;52.070;4.508;2023-04-01T00:12:23;99220.53;;;8.44;100.00
49030;BME280;43337;52.070;4.508;2023-04-01T00:14:50;99245.28;;;8.54;100.00
49030;BME280;43337;52.070;4.508;2023-04-01T00:17:16;99243.59;;;8.53;100.00
49030;BME280;43337;52.070;4.508;2023-04-01T00:19:41;99247.97;;;8.53;100.00
49030;BME280;43337;52.070;4.508;2023-04-01T00:22:07;99239.66;;;8.46;100.00
49030;BME280;43337;52.070;4.508;2023-04-01T00:24:36;99250.72;;;8.51;100.00
49030;BME280;43337;52.070;4.508;2023-04-01T00:27:02;99234.41;;;8.46;100.00
49030;BME280;43337;52.070;4.508;2023-04-01T00:29:27;99250.72;;;8.51;100.00
49030;BME280;43337;52.070;4.508;2023-04-01T00:31:55;99232.13;;;8.40;100.00
49030;BME280;43337;52.070;4.508;2023-04-01T00:34:20;99254.34;;;8.49;100.00
49030;BME280;43337;52.070;4.508;2023-04-01T00:36:46;99232.38;;;8.36;100.00
49030;BME280;43337;52.070;4.508;2023-04-01T00:39:11;99257.84;;;8.49;100.00
49030;BME280;43337;52.070;4.508;2023-04-01T00:41:36;99264.94;;;8.47;100.00
49030;BME280;43337;52.070;4.508;2023-04-01T00:44:20;99263.34;;;8.45;100.00
49030;BME280;43337;52.070;4.508;2023-04-01T00:46:46;99270.34;;;8.44;100.00
49030;BME280;43337;52.070;4.508;2023-04-01T00:49:12;99268.00;;;8.40;100.00
49030;BME280;43337;52.070;4.508;2023-04-01T00:51:39;99274.03;;;8.42;100.00
49030;BME280;43337;52.070;4.508;2023-04-01T00:54:06;99284.53;;;8.42;100.00
49030;BME280;43337;52.070;4.508;2023-04-01T00:56:35;99274.19;;;8.39;100.00
49030;BME280;43337;52.070;4.508;2023-04-01T00:59:04;99279.28;;;8.42;100.00
49030;BME280;43337;52.070;4.508;2023-04-01T01:01:34;99261.50;;;8.31;100.00
49030;BME280;43337;52.070;4.508;2023-04-01T01:04:00;99271.06;;;8.32;100.00
49030;BME280;43337;52.070;4.508;2023-04-01T01:06:39;99276.81;;;8.39;100.00
49030;BME280;43337;52.070;4.508;2023-04-01T01:12:07;99283.03;;;8.36;100.00
49030;BME280;43337;52.070;4.508;2023-04-01T01:27:21;99286.47;;;8.22;100.00
49030;BME280;43337;52.070;4.508;2023-04-01T01:35:22;99297.53;;;8.27;100.00
49030;BME280;43337;52.070;4.508;2023-04-01T01:37:53;99306.09;;;8.31;100.00
49030;BME280;43337;52.070;4.508;2023-04-01T01:40:20;99307.75;;;8.32;100.00
49030;BME280;43337;52.070;4.508;2023-04-01T01:42:50;99295.09;;;8.24;100.00
49030;BME280;43337;52.070;4.508;2023-04-01T01:45:20;99293.59;;;8.20;100.00
49030;BME280;43337;52.070;4.508;2023-04-01T01:47:47;99288.69;;;8.14;100.00
49030;BME280;43337;52.070;4.508;2023-04-01T01:50:15;99313.19;;;8.29;100.00
49030;BME280;43337;52.070;4.508;2023-04-01T01:52:43;99318.53;;;8.27;100.00
49030;BME280;43337;52.070;4.508;2023-04-01T01:55:28;99303.22;;;8.20;100.00
49030;BME280;43337;52.070;4.508;2023-04-01T01:57:56;99326.13;;;8.32;100.00
49030;BME280;43337;52.070;4.508;2023-04-01T02:00:23;99303.41;;;8.17;100.00
49030;BME280;43337;52.070;4.508;2023-04-01T02:02:50;99335.75;;;8.31;100.00
49030;BME280;43337;52.070;4.508;2023-04-01T02:05:21;99318.03;;;8.21;100.00
49030;BME280;43337;52.070;4.508;2023-04-01T02:07:55;99315.41;;;8.21;100.00
49030;BME280;43337;52.070;4.508;2023-04-01T02:10:25;99341.75;;;8.33;100.00
49030;BME280;43337;52.070;4.508;2023-04-01T02:12:53;99343.47;;;8.35;100.00
49030;BME280;43337;52.070;4.508;2023-04-01T02:15:24;99353.00;;;8.36;100.00
49030;BME280;43337;52.070;4.508;2023-04-01T02:17:51;99303.94;;;8.07;100.00
49030;BME280;43337;52.070;4.508;2023-04-01T02:20:18;99361.66;;;8.38;100.00
49030;BME280;43337;52.070;4.508;2023-04-01T02:22:48;99353.84;;;8.36;100.00
49030;BME280;43337;52.070;4.508;2023-04-01T02:25:27;99373.00;;;8.38;100.00
49030;BME280;43337;52.070;4.508;2023-04-01T02:27:54;99372.06;;;8.39;100.00
49030;BME280;43337;52.070;4.508;2023-04-01T02:30:22;99366.72;;;8.41;100.00
49030;BME280;43337;52.070;4.508;2023-04-01T02:32:48;99331.22;;;8.19;100.00
49030;BME280;43337;52.070;4.508;2023-04-01T02:35:16;99380.59;;;8.43;100.00
49030;BME280;43337;52.070;4.508;2023-04-01T02:37:43;99384.91;;;8.44;100.00
49030;BME280;43337;52.070;4.508;2023-04-01T02:40:12;99357.59;;;8.32;100.00
49030;BME280;43337;52.070;4.508;2023-04-01T02:42:38;99387.44;;;8.45;100.00
49030;BME280;43337;52.070;4.508;2023-04-01T02:45:05;99390.06;;;8.45;100.00
49030;BME280;43337;52.070;4.508;2023-04-01T02:47:31;99382.13;;;8.47;100.00
49030;BME280;43337;52.070;4.508;2023-04-01T02:49:56;99363.50;;;8.36;100.00
49030;BME280;43337;52.070;4.508;2023-04-01T02:52:26;99390.84;;;8.47;100.00
49030;BME280;43337;52.070;4.508;2023-04-01T02:54:52;99358.84;;;8.25;100.00
49030;BME280;43337;52.070;4.508;2023-04-01T02:57:17;99402.00;;;8.51;100.00
49030;BME280;43337;52.070;4.508;2023-04-01T02:59:43;99395.41;;;8.44;100.00
49030;BME280;43337;52.070;4.508;2023-04-01T03:02:08;99401.31;;;8.47;100.00
49030;BME280;43337;52.070;4.508;2023-04-01T03:04:34;99404.63;;;8.51;100.00
49030;BME280;43337;52.070;4.508;2023-04-01T03:06:59;99405.06;;;8.43;100.00
49030;BME280;43337;52.070;4.508;2023-04-01T03:09:25;99415.94;;;8.51;100.00
49030;BME280;43337;52.070;4.508;2023-04-01T03:11:50;99374.59;;;8.25;100.00
49030;BME280;43337;52.070;4.508;2023-04-01T03:14:16;99426.19;;;8.56;100.00
49030;BME280;43337;52.070;4.508;2023-04-01T03:16:41;99416.22;;;8.47;100.00
49030;BME280;43337;52.070;4.508;2023-04-01T03:19:06;99423.72;;;8.53;100.00
49030;BME280;43337;52.070;4.508;2023-04-01T03:21:32;99450.41;;;8.61;100.00
49030;BME280;43337;52.070;4.508;2023-04-01T03:23:57;99448.69;;;8.60;100.00
49030;BME280;43337;52.070;4.508;2023-04-01T03:26:23;99391.53;;;8.19;100.00
49030;BME280;43337;52.070;4.508;2023-04-01T03:28:49;99460.00;;;8.61;100.00
49030;BME280;43337;52.070;4.508;2023-04-01T03:31:14;99450.91;;;8.52;100.00
49030;BME280;43337;52.070;4.508;2023-04-01T03:33:41;99461.72;;;8.62;100.00
49030;BME280;43337;52.070;4.508;2023-04-01T03:36:07;99470.50;;;8.61;100.00
49030;BME280;43337;52.070;4.508;2023-04-01T03:38:34;99479.47;;;8.56;100.00
49030;BME280;43337;52.070;4.508;2023-04-01T03:40:59;99475.59;;;8.64;100.00
49030;BME280;43337;52.070;4.508;2023-04-01T03:43:26;99464.69;;;8.55;100.00
49030;BME280;43337;52.070;4.508;2023-04-01T03:45:51;99468.25;;;8.54;100.00
49030;BME280;43337;52.070;4.508;2023-04-01T03:48:17;99478.47;;;8.59;100.00
49030;BME280;43337;52.070;4.508;2023-04-01T03:50:43;99481.78;;;8.63;100.00
49030;BME280;43337;52.070;4.508;2023-04-01T03:53:09;99475.06;;;8.57;100.00
49030;BME280;43337;52.070;4.508;2023-04-01T03:55:36;99505.13;;;8.67;100.00
49030;BME280;43337;52.070;4.508;2023-04-01T03:58:02;99508.69;;;8.66;100.00
49030;BME280;43337;52.070;4.508;2023-04-01T04:00:29;99497.28;;;8.51;100.00
49030;BME280;43337;52.070;4.508;2023-04-01T04:02:54;99501.50;;;8.54;100.00
49030;BME280;43337;52.070;4.508;2023-04-01T04:05:24;99522.81;;;8.64;100.00
49030;BME280;43337;52.070;4.508;2023-04-01T04:07:52;99532.31;;;8.66;100.00
49030;BME280;43337;52.070;4.508;2023-04-01T04:10:18;99532.38;;;8.65;100.00
49030;BME280;43337;52.070;4.508;2023-04-01T04:12:43;99529.25;;;8.58;100.00
49030;BME280;43337;52.070;4.508;2023-04-01T04:15:09;99533.56;;;8.59;100.00
49030;BME280;43337;52.070;4.508;2023-04-01T04:17:34;99542.28;;;8.60;100.00
49030;BME280;43337;52.070;4.508;2023-04-01T04:20:00;99537.28;;;8.55;100.00
49030;BME280;43337;52.070;4.508;2023-04-01T04:22:25;99545.91;;;8.57;100.00
49030;BME280;43337;52.070;4.508;2023-04-01T04:24:51;99552.78;;;8.60;100.00
49030;BME280;43337;52.070;4.508;2023-04-01T04:27:17;99549.81;;;8.50;100.00
49030;BME280;43337;52.070;4.508;2023-04-01T04:29:42;99550.66;;;8.50;100.00
49030;BME280;43337;52.070;4.508;2023-04-01T04:32:08;99554.22;;;8.49;100.00
49030;BME280;43337;52.070;4.508;2023-04-01T04:34:34;99535.88;;;8.32;100.00
49030;BME280;43337;52.070;4.508;2023-04-01T04:36:59;99571.50;;;8.53;100.00
49030;BME280;43337;52.070;4.508;2023-04-01T04:39:25;99560.72;;;8.42;100.00
49030;BME280;43337;52.070;4.508;2023-04-01T04:41:51;99564.19;;;8.43;100.00
49030;BME280;43337;52.070;4.508;2023-04-01T04:44:16;99566.19;;;8.38;100.00
49030;BME280;43337;52.070;4.508;2023-04-01T04:46:41;99588.13;;;8.52;100.00
49030;BME280;43337;52.070;4.508;2023-04-01T04:49:07;99583.16;;;8.48;100.00
49030;BME280;43337;52.070;4.508;2023-04-01T04:51:32;99601.34;;;8.51;100.00
49030;BME280;43337;52.070;4.508;2023-04-01T04:54:02;99559.22;;;8.21;100.00
49030;BME280;43337;52.070;4.508;2023-04-01T04:56:28;99601.50;;;8.48;100.00
49030;BME280;43337;52.070;4.508;2023-04-01T04:58:53;99611.00;;;8.50;100.00
49030;BME280;43337;52.070;4.508;2023-04-01T05:01:19;99561.16;;;8.17;100.00
49030;BME280;43337;52.070;4.508;2023-04-01T05:03:46;99589.13;;;8.34;100.00
49030;BME280;43337;52.070;4.508;2023-04-01T05:06:14;99574.25;;;8.17;100.00
49030;BME280;43337;52.070;4.508;2023-04-01T05:08:41;99625.13;;;8.48;100.00
49030;BME280;43337;52.070;4.508;2023-04-01T05:11:10;99633.06;;;8.46;100.00
49030;BME280;43337;52.070;4.508;2023-04-01T05:13:36;99606.25;;;8.24;100.00
49030;BME280;43337;52.070;4.508;2023-04-01T05:16:02;99586.94;;;8.09;100.00
49030;BME280;43337;52.070;4.508;2023-04-01T05:18:28;99613.97;;;8.27;100.00
49030;BME280;43337;52.070;4.508;2023-04-01T05:20:54;99641.25;;;8.40;100.00
49030;BME280;43337;52.070;4.508;2023-04-01T05:23:21;99656.84;;;8.43;100.00
49030;BME280;43337;52.070;4.508;2023-04-01T05:25:48;99658.63;;;8.43;100.00
49030;BME280;43337;52.070;4.508;2023-04-01T05:28:14;99656.94;;;8.42;100.00
49030;BME280;43337;52.070;4.508;2023-04-01T05:30:40;99657.00;;;8.40;100.00
49030;BME280;43337;52.070;4.508;2023-04-01T05:33:07;99607.22;;;8.05;100.00
49030;BME280;43337;52.070;4.508;2023-04-01T05:35:33;99671.78;;;8.41;100.00
49030;BME280;43337;52.070;4.508;2023-04-01T05:37:58;99670.94;;;8.41;100.00
49030;BME280;43337;52.070;4.508;2023-04-01T05:40:23;99676.19;;;8.41;100.00
49030;BME280;43337;52.070;4.508;2023-04-01T05:42:49;99678.81;;;8.41;100.00
49030;BME280;43337;52.070;4.508;2023-04-01T05:45:15;99684.00;;;8.42;100.00
49030;BME280;43337;52.070;4.508;2023-04-01T05:47:40;99686.69;;;8.41;100.00
49030;BME280;43337;52.070;4.508;2023-04-01T05:50:08;99666.47;;;8.25;100.00
49030;BME280;43337;52.070;4.508;2023-04-01T05:52:33;99685.28;;;8.33;100.00
49030;BME280;43337;52.070;4.508;2023-04-01T05:54:58;99673.50;;;8.25;100.00
49030;BME280;43337;52.070;4.508;2023-04-01T05:57:26;99705.97;;;8.40;100.00
49030;BME280;43337;52.070;4.508;2023-04-01T05:59:52;99704.56;;;8.32;100.00
49030;BME280;43337;52.070;4.508;2023-04-01T06:02:17;99713.06;;;8.38;100.00
49030;BME280;43337;52.070;4.508;2023-04-01T06:04:43;99700.31;;;8.30;100.00
49030;BME280;43337;52.070;4.508;2023-04-01T06:07:17;99713.38;;;8.31;100.00
49030;BME280;43337;52.070;4.508;2023-04-01T06:09:44;99724.44;;;8.38;100.00
49030;BME280;43337;52.070;4.508;2023-04-01T06:12:45;99733.19;;;8.37;100.00
49030;BME280;43337;52.070;4.508;2023-04-01T06:15:47;99730.56;;;8.37;100.00
49030;BME280;43337;52.070;4.508;2023-04-01T06:18:52;99744.59;;;8.36;100.00
49030;BME280;43337;52.070;4.508;2023-04-01T06:27:42;99762.94;;;8.36;100.00
49030;BME280;43337;52.070;4.508;2023-04-01T06:36:03;99771.75;;;8.35;100.00
49030;BME280;43337;52.070;4.508;2023-04-01T06:47:26;99784.88;;;8.35;100.00
49030;BME280;43337;52.070;4.508;2023-04-01T06:50:24;99784.78;;;8.37;100.00
49030;BME280;43337;52.070;4.508;2023-04-01T06:53:15;99792.72;;;8.35;100.00
49030;BME280;43337;52.070;4.508;2023-04-01T06:55:46;99800.31;;;8.41;100.00
49030;BME280;43337;52.070;4.508;2023-04-01T06:58:25;99791.59;;;8.41;100.00
49030;BME280;43337;52.070;4.508;2023-04-01T07:01:03;99780.56;;;8.34;100.00
49030;BME280;43337;52.070;4.508;2023-04-01T07:06:04;99805.09;;;8.50;100.00
49030;BME280;43337;52.070;4.508;2023-04-01T07:08:33;99813.81;;;8.51;100.00
49030;BME280;43337;52.070;4.508;2023-04-01T07:11:05;99812.03;;;8.51;100.00
49030;BME280;43337;52.070;4.508;2023-04-01T07:13:39;99810.41;;;8.49;100.00
49030;BME280;43337;52.070;4.508;2023-04-01T07:18:43;99832.94;;;8.53;100.00
49030;BME280;43337;52.070;4.508;2023-04-01T07:24:04;99828.06;;;8.45;100.00
49030;BME280;43337;52.070;4.508;2023-04-01T07:26:31;99833.97;;;8.50;100.00
49030;BME280;43337;52.070;4.508;2023-04-01T07:28:57;99825.63;;;8.42;100.00
49030;BME280;43337;52.070;4.508;2023-04-01T07:36:53;99859.25;;;8.51;100.00
49030;BME280;43337;52.070;4.508;2023-04-01T07:47:51;99862.81;;;8.50;100.00
49030;BME280;43337;52.070;4.508;2023-04-01T07:50:29;99876.41;;;8.59;100.00
49030;BME280;43337;52.070;4.508;2023-04-01T07:59:05;99881.72;;;8.57;100.00
49030;BME280;43337;52.070;4.508;2023-04-01T08:01:41;99884.41;;;8.55;100.00
49030;BME280;43337;52.070;4.508;2023-04-01T08:07:13;99881.19;;;8.50;100.00
49030;BME280;43337;52.070;4.508;2023-04-01T08:13:02;99909.34;;;8.64;100.00
49030;BME280;43337;52.070;4.508;2023-04-01T08:18:09;99910.00;;;8.69;100.00
49030;BME280;43337;52.070;4.508;2023-04-01T08:20:41;99914.16;;;8.73;100.00
49030;BME280;43337;52.070;4.508;2023-04-01T08:25:37;99926.25;;;8.76;100.00
49030;BME280;43337;52.070;4.508;2023-04-01T08:30:49;99928.81;;;8.77;100.00
49030;BME280;43337;52.070;4.508;2023-04-01T08:38:48;99938.47;;;8.77;100.00
49030;BME280;43337;52.070;4.508;2023-04-01T08:41:36;99940.16;;;8.78;100.00
49030;BME280;43337;52.070;4.508;2023-04-01T08:46:55;99942.56;;;8.83;100.00
49030;BME280;43337;52.070;4.508;2023-04-01T09:04:05;99963.13;;;8.92;100.00
49030;BME280;43337;52.070;4.508;2023-04-01T09:06:38;99968.66;;;8.86;100.00
49030;BME280;43337;52.070;4.508;2023-04-01T09:12:13;99981.53;;;8.90;100.00
49030;BME280;43337;52.070;4.508;2023-04-01T09:17:33;99991.06;;;8.93;100.00
49030;BME280;43337;52.070;4.508;2023-04-01T09:20:29;99980.00;;;8.86;100.00
49030;BME280;43337;52.070;4.508;2023-04-01T09:25:55;99990.97;;;8.94;100.00
49030;BME280;43337;52.070;4.508;2023-04-01T09:28:49;99979.16;;;8.86;100.00
49030;BME280;43337;52.070;4.508;2023-04-01T09:39:36;100011.31;;;9.08;100.00
49030;BME280;43337;52.070;4.508;2023-04-01T09:42:23;100004.28;;;9.09;100.00
49030;BME280;43337;52.070;4.508;2023-04-01T09:45:07;100009.66;;;9.05;100.00
49030;BME280;43337;52.070;4.508;2023-04-01T09:53:53;100019.41;;;9.03;100.00
49030;BME280;43337;52.070;4.508;2023-04-01T10:17:34;100045.13;;;9.14;100.00
49030;BME280;43337;52.070;4.508;2023-04-01T10:23:02;100057.16;;;9.18;100.00
49030;BME280;43337;52.070;4.508;2023-04-01T10:33:46;100057.66;;;9.26;100.00
49030;BME280;43337;52.070;4.508;2023-04-01T10:36:59;100057.50;;;9.29;100.00
49030;BME280;43337;52.070;4.508;2023-04-01T10:46:04;100068.09;;;9.28;100.00
49030;BME280;43337;52.070;4.508;2023-04-01T10:54:21;100076.66;;;9.32;100.00
49030;BME280;43337;52.070;4.508;2023-04-01T10:57:16;100078.44;;;9.31;100.00
49030;BME280;43337;52.070;4.508;2023-04-01T10:59:57;100078.31;;;9.34;100.00
49030;BME280;43337;52.070;4.508;2023-04-01T11:19:38;100096.22;;;9.43;100.00
49030;BME280;43337;52.070;4.508;2023-04-01T11:28:26;100098.38;;;9.52;100.00
49030;BME280;43337;52.070;4.508;2023-04-01T11:31:11;100099.22;;;9.53;100.00
49030;BME280;43337;52.070;4.508;2023-04-01T11:33:49;100097.63;;;9.50;100.00
49030;BME280;43337;52.070;4.508;2023-04-01T11:36:32;100121.75;;;9.59;100.00
49030;BME280;43337;52.070;4.508;2023-04-01T11:39:22;100123.66;;;9.55;100.00
49030;BME280;43337;52.070;4.508;2023-04-01T11:44:39;100110.81;;;9.49;100.00
49030;BME280;43337;52.070;4.508;2023-04-01T11:48:07;100130.94;;;9.50;100.00
49030;BME280;43337;52.070;4.508;2023-04-01T11:50:44;100137.09;;;9.49;100.00
49030;BME280;43337;52.070;4.508;2023-04-01T11:53:30;100133.63;;;9.48;100.00
49030;BME280;43337;52.070;4.508;2023-04-01T11:56:38;100141.50;;;9.48;100.00
49030;BME280;43337;52.070;4.508;2023-04-01T11:59:37;100150.31;;;9.47;100.00
49030;BME280;43337;52.070;4.508;2023-04-01T12:10:26;100157.03;;;9.53;100.00
49030;BME280;43337;52.070;4.508;2023-04-01T12:13:07;100164.03;;;9.54;100.00
49030;BME280;43337;52.070;4.508;2023-04-01T12:15:54;100165.09;;;9.50;100.00
49030;BME280;43337;52.070;4.508;2023-04-01T12:18:38;100169.75;;;9.62;100.00
49030;BME280;43337;52.070;4.508;2023-04-01T12:21:11;100176.47;;;9.68;100.00
49030;BME280;43337;52.070;4.508;2023-04-01T12:26:29;100178.81;;;9.74;100.00
49030;BME280;43337;52.070;4.508;2023-04-01T12:34:49;100182.50;;;9.87;100.00
49030;BME280;43337;52.070;4.508;2023-04-01T12:45:40;100193.56;;;9.94;100.00
49030;BME280;43337;52.070;4.508;2023-04-01T13:02:52;100217.56;;;10.05;100.00
49030;BME280;43337;52.070;4.508;2023-04-01T13:05:53;100210.91;;;9.98;100.00
49030;BME280;43337;52.070;4.508;2023-04-01T13:17:08;100238.81;;;10.18;100.00
49030;BME280;43337;52.070;4.508;2023-04-01T13:22:19;100238.47;;;10.25;100.00
49030;BME280;43337;52.070;4.508;2023-04-01T13:27:27;100247.91;;;10.30;100.00
49030;BME280;43337;52.070;4.508;2023-04-01T13:44:48;100258.13;;;10.36;100.00
49030;BME280;43337;52.070;4.508;2023-04-01T13:47:10;100264.09;;;10.39;100.00
49030;BME280;43337;52.070;4.508;2023-04-01T13:56:00;100274.72;;;10.38;100.00
49030;BME280;43337;52.070;4.508;2023-04-01T13:58:44;100265.03;;;10.38;100.00
49030;BME280;43337;52.070;4.508;2023-04-01T14:01:31;100282.28;;;10.44;100.00
49030;BME280;43337;52.070;4.508;2023-04-01T14:20:33;100307.56;;;10.64;100.00
49030;BME280;43337;52.070;4.508;2023-04-01T14:26:00;100314.88;;;10.59;100.00
49030;BME280;43337;52.070;4.508;2023-04-01T14:28:59;100312.47;;;10.54;100.00
49030;BME280;43337;52.070;4.508;2023-04-01T14:32:15;100316.19;;;10.50;100.00
49030;BME280;43337;52.070;4.508;2023-04-01T14:35:05;100313.94;;;10.42;100.00
49030;BME280;43337;52.070;4.508;2023-04-01T14:40:28;100329.97;;;10.38;100.00
49030;BME280;43337;52.070;4.508;2023-04-01T14:43:22;100329.09;;;10.37;100.00
49030;BME280;43337;52.070;4.508;2023-04-01T14:48:58;100337.22;;;10.33;100.00
49030;BME280;43337;52.070;4.508;2023-04-01T14:54:00;100345.13;;;10.33;100.00
49030;BME280;43337;52.070;4.508;2023-04-01T14:59:28;100352.25;;;10.31;100.00
49030;BME280;43337;52.070;4.508;2023-04-01T15:02:18;100356.88;;;10.25;100.00
49030;BME280;43337;52.070;4.508;2023-04-01T15:10:40;100372.38;;;10.13;100.00
49030;BME280;43337;52.070;4.508;2023-04-01T15:21:40;100384.59;;;9.95;100.00
49030;BME280;43337;52.070;4.508;2023-04-01T15:35:31;100420.56;;;10.13;100.00
49030;BME280;43337;52.070;4.508;2023-04-01T15:38:11;100421.34;;;10.15;100.00
49030;BME280;43337;52.070;4.508;2023-04-01T15:43:36;100415.09;;;9.99;100.00
49030;BME280;43337;52.070;4.508;2023-04-01T15:46:36;100442.53;;;10.12;100.00
49030;BME280;43337;52.070;4.508;2023-04-01T15:49:37;100450.44;;;10.12;100.00
49030;BME280;43337;52.070;4.508;2023-04-01T15:58:06;100459.44;;;10.07;100.00
49030;BME280;43337;52.070;4.508;2023-04-01T16:07:16;100476.88;;;10.09;100.00
49030;BME280;43337;52.070;4.508;2023-04-01T16:10:01;100481.19;;;10.10;100.00
49030;BME280;43337;52.070;4.508;2023-04-01T16:12:58;100481.28;;;10.09;100.00
49030;BME280;43337;52.070;4.508;2023-04-01T16:21:10;100500.91;;;10.01;100.00
49030;BME280;43337;52.070;4.508;2023-04-01T16:24:00;100504.59;;;9.97;100.00
49030;BME280;43337;52.070;4.508;2023-04-01T16:26:49;100500.66;;;9.87;100.00
49030;BME280;43337;52.070;4.508;2023-04-01T16:40:40;100546.84;;;9.74;100.00
49030;BME280;43337;52.070;4.508;2023-04-01T16:45:51;100553.19;;;9.68;100.00
49030;BME280;43337;52.070;4.508;2023-04-01T16:48:22;100544.06;;;9.57;100.00
49030;BME280;43337;52.070;4.508;2023-04-01T16:50:58;100549.16;;;9.61;100.00
49030;BME280;43337;52.070;4.508;2023-04-01T16:53:47;100566.53;;;9.64;100.00
49030;BME280;43337;52.070;4.508;2023-04-01T16:56:38;100563.38;;;9.56;100.00
49030;BME280;43337;52.070;4.508;2023-04-01T17:04:43;100590.41;;;9.59;100.00
49030;BME280;43337;52.070;4.508;2023-04-01T17:16:00;100609.00;;;9.54;100.00
49030;BME280;43337;52.070;4.508;2023-04-01T17:21:46;100621.59;;;9.46;100.00
49030;BME280;43337;52.070;4.508;2023-04-01T17:24:42;100633.00;;;9.45;100.00
49030;BME280;43337;52.070;4.508;2023-04-01T17:27:20;100637.56;;;9.42;100.00
49030;BME280;43337;52.070;4.508;2023-04-01T17:35:39;100642.75;;;9.21;100.00
49030;BME280;43337;52.070;4.508;2023-04-01T17:41:20;100669.81;;;9.23;100.00
49030;BME280;43337;52.070;4.508;2023-04-01T18:02:57;100724.53;;;9.12;100.00
49030;BME280;43337;52.070;4.508;2023-04-01T18:05:44;100729.91;;;9.09;100.00
49030;BME280;43337;52.070;4.508;2023-04-01T18:11:05;100744.91;;;9.05;100.00
49030;BME280;43337;52.070;4.508;2023-04-01T18:22:20;100769.75;;;8.97;100.00
49030;BME280;43337;52.070;4.508;2023-04-01T18:27:39;100786.59;;;8.91;100.00
49030;BME280;43337;52.070;4.508;2023-04-01T18:30:22;100790.22;;;8.87;100.00
49030;BME280;43337;52.070;4.508;2023-04-01T18:33:06;100795.72;;;8.81;100.00
49030;BME280;43337;52.070;4.508;2023-04-01T18:38:17;100810.91;;;8.73;100.00
49030;BME280;43337;52.070;4.508;2023-04-01T18:41:34;100815.13;;;8.77;100.00
49030;BME280;43337;52.070;4.508;2023-04-01T18:49:33;100846.91;;;8.68;100.00
49030;BME280;43337;52.070;4.508;2023-04-01T18:52:22;100861.88;;;8.66;100.00
49030;BME280;43337;52.070;4.508;2023-04-01T18:55:22;100859.34;;;8.63;100.00
49030;BME280;43337;52.070;4.508;2023-04-01T18:57:54;100858.53;;;8.61;100.00
49030;BME280;43337;52.070;4.508;2023-04-01T19:00:33;100855.28;;;8.54;100.00
49030;BME280;43337;52.070;4.508;2023-04-01T19:03:16;100881.47;;;8.55;100.00
49030;BME280;43337;52.070;4.508;2023-04-01T19:05:47;100891.00;;;8.58;100.00
49030;BME280;43337;52.070;4.508;2023-04-01T19:08:32;100870.63;;;8.40;100.00
49030;BME280;43337;52.070;4.508;2023-04-01T19:14:16;100907.84;;;8.51;100.00
49030;BME280;43337;52.070;4.508;2023-04-01T19:17:09;100917.59;;;8.47;100.00
49030;BME280;43337;52.070;4.508;2023-04-01T19:22:43;100911.94;;;8.31;100.00
49030;BME280;43337;52.070;4.508;2023-04-01T19:25:37;100930.88;;;8.43;100.00
49030;BME280;43337;52.070;4.508;2023-04-01T19:30:54;100944.00;;;8.41;100.00
49030;BME280;43337;52.070;4.508;2023-04-01T19:46:19;100964.41;;;8.31;100.00
49030;BME280;43337;52.070;4.508;2023-04-01T19:49:06;100968.81;;;8.31;100.00
49030;BME280;43337;52.070;4.508;2023-04-01T19:54:18;100982.09;;;8.25;100.00
49030;BME280;43337;52.070;4.508;2023-04-01T19:56:52;100985.66;;;8.22;100.00
49030;BME280;43337;52.070;4.508;2023-04-01T20:04:50;100998.22;;;8.13;100.00
49030;BME280;43337;52.070;4.508;2023-04-01T20:15:46;101016.97;;;7.99;100.00
49030;BME280;43337;52.070;4.508;2023-04-01T20:18:16;101032.47;;;8.06;100.00
49030;BME280;43337;52.070;4.508;2023-04-01T20:20:54;101025.72;;;7.98;100.00
49030;BME280;43337;52.070;4.508;2023-04-01T20:23:45;101037.94;;;7.99;100.00
49030;BME280;43337;52.070;4.508;2023-04-01T20:26:20;101034.66;;;7.92;100.00
49030;BME280;43337;52.070;4.508;2023-04-01T20:32:10;101052.94;;;7.94;100.00
49030;BME280;43337;52.070;4.508;2023-04-01T20:34:57;101063.50;;;7.92;100.00
49030;BME280;43337;52.070;4.508;2023-04-01T20:37:38;101071.38;;;7.91;100.00
49030;BME280;43337;52.070;4.508;2023-04-01T20:40:36;101087.22;;;7.86;100.00
49030;BME280;43337;52.070;4.508;2023-04-01T20:48:31;101099.63;;;7.79;100.00
49030;BME280;43337;52.070;4.508;2023-04-01T20:51:06;101094.59;;;7.72;100.00
49030;BME280;43337;52.070;4.508;2023-04-01T20:56:12;101090.53;;;7.60;100.00
49030;BME280;43337;52.070;4.508;2023-04-01T20:58:53;101111.31;;;7.68;100.00
49030;BME280;43337;52.070;4.508;2023-04-01T21:01:43;101110.66;;;7.59;100.00
49030;BME280;43337;52.070;4.508;2023-04-01T21:10:29;101123.81;;;7.56;100.00
49030;BME280;43337;52.070;4.508;2023-04-01T21:30:05;101177.50;;;7.40;100.00
49030;BME280;43337;52.070;4.508;2023-04-01T21:33:00;101182.78;;;7.39;100.00
49030;BME280;43337;52.070;4.508;2023-04-01T21:35:53;101196.75;;;7.38;100.00
49030;BME280;43337;52.070;4.508;2023-04-01T21:39:01;101205.50;;;7.38;100.00
49030;BME280;43337;52.070;4.508;2023-04-01T21:44:37;101223.03;;;7.34;100.00
49030;BME280;43337;52.070;4.508;2023-04-01T21:50:00;101235.38;;;7.29;100.00
49030;BME280;43337;52.070;4.508;2023-04-01T21:53:02;101237.16;;;7.27;100.00
49030;BME280;43337;52.070;4.508;2023-04-01T22:01:21;101247.81;;;7.20;100.00
49030;BME280;43337;52.070;4.508;2023-04-01T22:07:15;101258.56;;;7.07;100.00
49030;BME280;43337;52.070;4.508;2023-04-01T22:10:01;101263.00;;;7.02;100.00
49030;BME280;43337;52.070;4.508;2023-04-01T22:13:03;101275.13;;;7.08;100.00